Time;durP1;ratioP1;P1;durP2;ratioP2;P2;SDS_P1;SDS_P2;PMS_P1;PMS_P2;Temp;Humidity;BMP_temperature;BMP_pressure;BME280_temperature;BME280_humidity;BME280_pressure;Samples;Min_cycle;Max_cycle;Signal;HPM_P1;HPM_P2
2023/01/14 00:00:15;;;;;;;4.57;2.83;;;;;;;;;;5049764;28;20452;-76
2023/01/14 00:02:42;;;;;;;4.03;2.60;;;;;;;;;;5049497;28;21020;-74
2023/01/14 00:05:10;;;;;;;5.17;2.93;;;;;;;;;;5049833;28;20968;-74
2023/01/14 00:07:37;;;;;;;4.63;2.40;;;;;;;;;;5049616;28;20949;-73
2023/01/14 00:10:04;;;;;;;6.33;2.70;;;;;;;;;;5049706;28;20892;-75
2023/01/14 00:12:32;;;;;;;3.87;2.30;;;;;;;;;;5049421;28;20446;-75
2023/01/14 00:15:00;;;;;;;2.87;2.63;;;;;;;;;;5044310;28;20807;-74
2023/01/14 00:17:26;;;;;;;6.20;2.73;;;;;;;;;;5029735;28;20446;-73
2023/01/14 00:19:54;;;;;;;4.23;2.80;;;;;;;;;;5029874;28;20462;-74
2023/01/14 00:22:21;;;;;;;5.73;2.87;;;;;;;;;;5030113;28;20461;-74
2023/01/14 00:24:48;;;;;;;5.70;3.20;;;;;;;;;;5029674;28;20542;-73
2023/01/14 00:27:16;;;;;;;4.77;2.37;;;;;;;;;;5029680;28;20959;-74
2023/01/14 00:29:44;;;;;;;4.50;2.40;;;;;;;;;;5029476;28;20534;-75
2023/01/14 00:32:11;;;;;;;4.23;2.53;;;;;;;;;;5029487;28;20469;-73
2023/01/14 00:34:38;;;;;;;5.13;2.50;;;;;;;;;;5029748;28;20442;-73
2023/01/14 00:37:05;;;;;;;7.33;2.30;;;;;;;;;;5029527;28;20442;-74
2023/01/14 00:39:32;;;;;;;5.63;2.63;;;;;;;;;;5029534;28;20843;-73
2023/01/14 00:41:59;;;;;;;8.77;2.97;;;;;;;;;;5029554;28;20443;-74
2023/01/14 00:44:26;;;;;;;6.60;3.07;;;;;;;;;;5029307;28;20449;-74
2023/01/14 00:46:55;;;;;;;9.40;2.90;;;;;;;;;;5029868;28;20524;-76
2023/01/14 00:49:23;;;;;;;4.37;2.50;;;;;;;;;;5029589;28;20474;-74
2023/01/14 00:51:51;;;;;;;4.70;2.70;;;;;;;;;;5029606;28;20949;-74
2023/01/14 00:54:18;;;;;;;7.20;3.23;;;;;;;;;;5029616;28;20472;-74
2023/01/14 00:56:46;;;;;;;5.27;3.20;;;;;;;;;;5029500;28;20497;-75
2023/01/14 00:59:17;;;;;;;7.70;3.07;;;;;;;;;;5031102;28;20492;-73
2023/01/14 01:01:44;;;;;;;8.20;3.20;;;;;;;;;;5033440;28;20457;-73
2023/01/14 01:04:12;;;;;;;6.30;3.23;;;;;;;;;;5033277;28;20492;-74
2023/01/14 01:06:39;;;;;;;4.27;2.77;;;;;;;;;;5032987;28;20444;-73
2023/01/14 01:09:06;;;;;;;3.87;3.07;;;;;;;;;;5032984;28;20469;-73
2023/01/14 01:11:33;;;;;;;6.03;2.83;;;;;;;;;;5033035;28;20488;-74
2023/01/14 01:14:00;;;;;;;6.70;2.77;;;;;;;;;;5032699;28;20463;-74
2023/01/14 01:16:28;;;;;;;8.20;2.90;;;;;;;;;;5050644;28;20823;-74
2023/01/14 01:18:56;;;;;;;7.00;3.13;;;;;;;;;;5052954;28;20472;-73
2023/01/14 01:21:25;;;;;;;6.93;2.60;;;;;;;;;;5053124;28;20445;-73
2023/01/14 01:23:52;;;;;;;7.70;2.87;;;;;;;;;;5051722;28;20827;-74
2023/01/14 01:26:20;;;;;;;3.20;2.30;;;;;;;;;;5052587;28;20449;-73
2023/01/14 01:28:48;;;;;;;5.40;2.90;;;;;;;;;;5052731;28;20464;-75
2023/01/14 01:31:15;;;;;;;6.60;3.83;;;;;;;;;;5052707;28;20484;-72
2023/01/14 01:33:42;;;;;;;4.20;2.60;;;;;;;;;;5052692;28;20498;-74
2023/01/14 01:36:13;;;;;;;4.87;2.10;;;;;;;;;;5052702;28;20443;-74
2023/01/14 01:38:41;;;;;;;6.03;2.67;;;;;;;;;;5052528;28;20472;-73
2023/01/14 01:41:08;;;;;;;6.40;3.90;;;;;;;;;;5052622;28;20432;-73
2023/01/14 01:43:35;;;;;;;5.53;3.50;;;;;;;;;;5052259;28;20459;-74
2023/01/14 01:46:02;;;;;;;6.07;3.57;;;;;;;;;;5052341;28;20449;-74
2023/01/14 01:48:31;;;;;;;6.13;3.10;;;;;;;;;;5052583;28;20984;-75
2023/01/14 01:51:02;;;;;;;5.80;3.30;;;;;;;;;;5053391;28;20480;-73
2023/01/14 01:53:29;;;;;;;6.20;2.93;;;;;;;;;;5071084;28;20443;-75
2023/01/14 01:55:58;;;;;;;5.67;3.30;;;;;;;;;;5072659;28;20452;-74
2023/01/14 01:58:27;;;;;;;5.73;3.03;;;;;;;;;;5072451;28;20467;-74
2023/01/14 02:00:54;;;;;;;4.90;3.00;;;;;;;;;;5072133;28;20490;-75
2023/01/14 02:03:23;;;;;;;9.27;2.83;;;;;;;;;;5072293;28;20596;-74
2023/01/14 02:05:51;;;;;;;7.57;2.80;;;;;;;;;;5073227;28;20451;-73
2023/01/14 02:08:18;;;;;;;3.70;2.53;;;;;;;;;;5073163;28;21006;-75
2023/01/14 02:11:04;;;;;;;6.20;3.00;;;;;;;;;;5072392;28;20484;-75
2023/01/14 02:13:37;;;;;;;3.27;1.97;;;;;;;;;;5073794;28;20435;-75
2023/01/14 02:16:08;;;;;;;5.07;2.60;;;;;;;;;;5058557;28;20501;-75
2023/01/14 02:18:39;;;;;;;5.03;2.50;;;;;;;;;;5051865;28;20976;-73
2023/01/14 02:21:09;;;;;;;5.53;2.73;;;;;;;;;;5051679;28;20430;-74
2023/01/14 02:23:56;;;;;;;3.80;2.40;;;;;;;;;;5051648;28;20436;-73
2023/01/14 02:26:45;;;;;;;4.73;2.47;;;;;;;;;;5051614;28;20941;-72
2023/01/14 02:29:26;;;;;;;2.10;2.00;;;;;;;;;;5052049;28;20458;-74
2023/01/14 02:31:54;;;;;;;4.17;2.77;;;;;;;;;;5051746;28;20938;-74
2023/01/14 02:34:24;;;;;;;3.33;2.30;;;;;;;;;;5051352;28;20483;-75
2023/01/14 02:36:53;;;;;;;3.83;2.33;;;;;;;;;;5051285;28;21013;-74
2023/01/14 02:39:22;;;;;;;7.70;2.50;;;;;;;;;;5051628;28;20554;-74
2023/01/14 02:44:41;;;;;;;4.47;2.40;;;;;;;;;;5051229;28;20427;-74
2023/01/14 02:47:11;;;;;;;5.37;2.70;;;;;;;;;;5051078;28;20476;-73
2023/01/14 02:49:40;;;;;;;4.13;1.73;;;;;;;;;;5051017;28;20539;-73
2023/01/14 02:52:07;;;;;;;4.90;2.37;;;;;;;;;;5051462;28;20456;-74
2023/01/14 02:54:34;;;;;;;3.50;1.80;;;;;;;;;;5051097;28;20856;-72
2023/01/14 02:57:04;;;;;;;8.33;2.63;;;;;;;;;;5051366;28;20441;-75
2023/01/14 02:59:51;;;;;;;4.10;2.30;;;;;;;;;;5051432;28;20469;-73
2023/01/14 03:02:26;;;;;;;5.73;2.50;;;;;;;;;;5045930;28;20457;-72
2023/01/14 03:04:59;;;;;;;3.50;2.00;;;;;;;;;;5051190;28;20462;-75
2023/01/14 03:07:29;;;;;;;6.33;2.30;;;;;;;;;;5050949;28;20530;-73
2023/01/14 03:10:01;;;;;;;6.83;2.47;;;;;;;;;;5050990;28;20485;-74
2023/01/14 03:12:34;;;;;;;2.87;2.10;;;;;;;;;;5051139;28;20444;-74
2023/01/14 03:15:06;;;;;;;5.30;2.17;;;;;;;;;;5045625;28;20892;-73
2023/01/14 03:17:37;;;;;;;2.97;2.77;;;;;;;;;;5030915;28;20540;-73
2023/01/14 03:20:07;;;;;;;2.80;2.10;;;;;;;;;;5031160;28;20462;-74
2023/01/14 03:22:34;;;;;;;3.97;2.00;;;;;;;;;;5030040;28;20571;-73
2023/01/14 03:25:02;;;;;;;9.20;2.40;;;;;;;;;;5032022;28;20561;-73
2023/01/14 03:27:32;;;;;;;10.20;2.40;;;;;;;;;;5031053;28;20460;-73
2023/01/14 03:30:03;;;;;;;4.13;2.10;;;;;;;;;;5031024;28;20486;-74
2023/01/14 03:32:32;;;;;;;2.93;1.80;;;;;;;;;;5030753;28;20447;-74
2023/01/14 03:35:05;;;;;;;4.90;1.93;;;;;;;;;;5030879;28;20484;-73
2023/01/14 03:37:32;;;;;;;3.00;2.00;;;;;;;;;;5030457;28;20446;-73
2023/01/14 03:40:01;;;;;;;4.13;2.20;;;;;;;;;;5030359;28;20463;-74
2023/01/14 03:42:31;;;;;;;3.87;1.70;;;;;;;;;;5030482;28;20449;-73
2023/01/14 03:45:02;;;;;;;4.23;2.10;;;;;;;;;;5031142;28;20996;-74
2023/01/14 03:47:30;;;;;;;4.20;1.73;;;;;;;;;;5030905;28;20825;-74
2023/01/14 03:49:59;;;;;;;2.90;2.27;;;;;;;;;;5031158;28;20861;-74
2023/01/14 03:52:32;;;;;;;6.87;2.40;;;;;;;;;;5030825;28;20461;-73
2023/01/14 03:55:02;;;;;;;4.73;1.97;;;;;;;;;;5030880;28;20456;-73
2023/01/14 03:57:32;;;;;;;4.37;1.90;;;;;;;;;;5030269;28;20450;-73
2023/01/14 04:00:01;;;;;;;9.00;2.03;;;;;;;;;;5030183;28;20462;-74
2023/01/14 04:02:29;;;;;;;2.00;1.73;;;;;;;;;;5030327;28;20783;-73
2023/01/14 04:04:57;;;;;;;3.90;2.33;;;;;;;;;;5030378;28;20468;-73
2023/01/14 04:07:25;;;;;;;3.03;1.70;;;;;;;;;;5031122;28;21080;-74
2023/01/14 04:09:53;;;;;;;5.20;1.90;;;;;;;;;;5031114;28;20520;-73
2023/01/14 04:12:20;;;;;;;4.20;1.60;;;;;;;;;;5031418;28;20445;-74
2023/01/14 04:17:33;;;;;;;3.27;1.40;;;;;;;;;;5030617;28;20630;-73
2023/01/14 04:20:00;;;;;;;3.00;2.03;;;;;;;;;;5029896;28;20989;-74
2023/01/14 04:22:27;;;;;;;6.97;2.33;;;;;;;;;;5029957;28;20438;-72
2023/01/14 04:24:55;;;;;;;1.80;1.70;;;;;;;;;;5029961;28;20449;-75
2023/01/14 04:27:22;;;;;;;3.57;1.93;;;;;;;;;;5029914;28;20947;-75
2023/01/14 04:29:49;;;;;;;2.07;1.57;;;;;;;;;;5029891;28;20455;-73
2023/01/14 04:32:16;;;;;;;2.20;1.63;;;;;;;;;;5030193;28;20559;-74
2023/01/14 04:34:43;;;;;;;6.47;1.90;;;;;;;;;;5033894;28;20961;-73
2023/01/14 04:37:10;;;;;;;4.63;1.90;;;;;;;;;;5034548;28;20446;-74
2023/01/14 04:39:37;;;;;;;2.83;1.90;;;;;;;;;;5034793;28;20516;-74
2023/01/14 04:44:51;;;;;;;2.07;1.40;;;;;;;;;;5035670;28;20417;-72
2023/01/14 04:47:18;;;;;;;5.63;2.93;;;;;;;;;;5034065;28;20495;-76
2023/01/14 04:49:45;;;;;;;2.70;1.93;;;;;;;;;;5033902;28;20473;-74
2023/01/14 04:52:12;;;;;;;5.57;1.97;;;;;;;;;;5033874;28;20481;-75
2023/01/14 04:54:39;;;;;;;3.30;1.77;;;;;;;;;;5050952;28;20447;-74
2023/01/14 04:57:07;;;;;;;5.80;1.60;;;;;;;;;;5074338;28;20448;-73
2023/01/14 04:59:35;;;;;;;3.60;1.80;;;;;;;;;;5074026;28;20952;-74
2023/01/14 05:02:02;;;;;;;7.20;1.70;;;;;;;;;;5073914;28;20594;-73
2023/01/14 05:04:30;;;;;;;4.17;2.07;;;;;;;;;;5073980;28;20444;-73
2023/01/14 05:06:57;;;;;;;4.53;2.50;;;;;;;;;;5074091;28;20453;-75
2023/01/14 05:09:25;;;;;;;5.27;2.23;;;;;;;;;;5073151;28;20472;-74
2023/01/14 05:11:52;;;;;;;2.10;1.40;;;;;;;;;;5073208;28;20507;-73
2023/01/14 05:14:20;;;;;;;2.53;1.67;;;;;;;;;;5073106;28;20447;-74
2023/01/14 05:16:47;;;;;;;3.67;1.70;;;;;;;;;;5033425;28;20446;-74
2023/01/14 05:19:14;;;;;;;4.70;1.60;;;;;;;;;;5033124;28;20912;-73
2023/01/14 05:21:41;;;;;;;4.07;1.70;;;;;;;;;;5032928;28;20446;-72
2023/01/14 05:24:08;;;;;;;2.70;1.40;;;;;;;;;;5032745;28;20442;-74
2023/01/14 05:26:35;;;;;;;3.70;1.87;;;;;;;;;;5032829;28;20450;-73
2023/01/14 05:29:02;;;;;;;3.30;2.00;;;;;;;;;;5032827;28;20555;-73
2023/01/14 05:31:31;;;;;;;6.10;2.40;;;;;;;;;;5033174;28;20477;-73
2023/01/14 05:33:59;;;;;;;5.40;2.00;;;;;;;;;;5032409;28;20440;-75
2023/01/14 05:36:26;;;;;;;4.17;2.77;;;;;;;;;;5032314;28;20457;-73
2023/01/14 05:38:53;;;;;;;4.10;2.47;;;;;;;;;;5032877;28;20470;-72
2023/01/14 05:41:20;;;;;;;4.13;1.70;;;;;;;;;;5032351;28;20447;-74
2023/01/14 05:46:34;;;;;;;2.83;1.47;;;;;;;;;;5032429;28;20921;-73
2023/01/14 05:49:01;;;;;;;2.70;1.83;;;;;;;;;;5032254;28;20469;-74
2023/01/14 05:51:28;;;;;;;6.10;1.67;;;;;;;;;;5033302;28;20485;-72
2023/01/14 05:53:55;;;;;;;3.40;1.90;;;;;;;;;;5053009;28;20873;-72
2023/01/14 05:56:22;;;;;;;5.30;1.57;;;;;;;;;;5055992;28;20594;-73
2023/01/14 05:58:49;;;;;;;2.70;1.50;;;;;;;;;;5051563;28;20461;-73
2023/01/14 06:06:48;;;;;;;2.17;1.97;;;;;;;;;;5046272;28;20428;-74
2023/01/14 06:09:17;;;;;;;5.00;2.20;;;;;;;;;;5051819;28;20504;-73
2023/01/14 06:11:50;;;;;;;4.40;1.90;;;;;;;;;;5051915;28;20587;-73
2023/01/14 06:14:17;;;;;;;4.20;2.40;;;;;;;;;;5052117;28;20499;-74
2023/01/14 06:16:51;;;;;;;10.60;4.50;;;;;;;;;;5060253;28;20445;-73
2023/01/14 06:19:19;;;;;;;5.10;2.50;;;;;;;;;;5062265;28;20475;-73
2023/01/14 06:21:46;;;;;;;22.20;15.90;;;;;;;;;;5077328;28;20792;-73
2023/01/14 06:24:13;;;;;;;4.47;4.07;;;;;;;;;;5076722;28;20459;-75
2023/01/14 06:26:41;;;;;;;3.73;2.03;;;;;;;;;;5057693;28;20461;-74
2023/01/14 06:29:09;;;;;;;4.67;2.20;;;;;;;;;;5036020;28;20948;-73
2023/01/14 06:31:37;;;;;;;3.83;2.03;;;;;;;;;;5036406;28;20488;-75
2023/01/14 06:34:04;;;;;;;3.20;1.77;;;;;;;;;;5031558;28;20456;-75
2023/01/14 06:36:34;;;;;;;4.97;1.83;;;;;;;;;;5031480;28;20449;-73
2023/01/14 06:39:01;;;;;;;6.53;2.10;;;;;;;;;;5031469;28;20578;-74
2023/01/14 06:41:28;;;;;;;7.73;2.00;;;;;;;;;;5031837;28;20850;-73
2023/01/14 06:43:55;;;;;;;2.00;1.60;;;;;;;;;;5030848;28;20441;-73
2023/01/14 06:46:22;;;;;;;4.67;1.90;;;;;;;;;;5031405;28;20871;-73
2023/01/14 06:48:49;;;;;;;3.17;2.30;;;;;;;;;;5031317;28;20518;-74
2023/01/14 06:51:18;;;;;;;4.23;3.27;;;;;;;;;;5031122;28;20477;-73
2023/01/14 06:53:47;;;;;;;5.83;2.30;;;;;;;;;;5030952;28;20461;-74
2023/01/14 06:56:14;;;;;;;5.73;2.03;;;;;;;;;;5030134;28;20447;-75
2023/01/14 06:58:42;;;;;;;2.47;1.83;;;;;;;;;;5030747;28;20958;-72
2023/01/14 07:01:10;;;;;;;2.30;2.10;;;;;;;;;;5031326;28;20723;-73
2023/01/14 07:03:37;;;;;;;5.17;2.00;;;;;;;;;;5030529;28;20487;-74
2023/01/14 07:06:04;;;;;;;6.63;2.30;;;;;;;;;;5030954;28;20452;-74
2023/01/14 07:08:31;;;;;;;4.00;1.93;;;;;;;;;;5030943;28;20497;-73
2023/01/14 07:10:59;;;;;;;2.60;2.03;;;;;;;;;;5030544;28;20829;-74
2023/01/14 07:13:26;;;;;;;4.70;2.00;;;;;;;;;;5030828;28;20446;-75
2023/01/14 07:15:53;;;;;;;3.10;1.80;;;;;;;;;;5043256;28;20522;-73
2023/01/14 07:18:21;;;;;;;3.90;2.40;;;;;;;;;;5050586;28;20457;-75
2023/01/14 07:20:48;;;;;;;6.63;2.13;;;;;;;;;;5050526;28;20436;-73
2023/01/14 07:23:15;;;;;;;3.40;1.60;;;;;;;;;;5050616;28;20449;-75
2023/01/14 07:25:42;;;;;;;2.43;1.90;;;;;;;;;;5050439;28;20453;-73
2023/01/14 07:28:10;;;;;;;4.20;1.70;;;;;;;;;;5050444;28;20480;-74
2023/01/14 07:30:37;;;;;;;4.90;1.80;;;;;;;;;;5050298;28;20445;-73
2023/01/14 07:33:04;;;;;;;3.60;1.70;;;;;;;;;;5050026;28;20867;-74
2023/01/14 07:35:31;;;;;;;7.70;2.53;;;;;;;;;;5051104;28;20452;-73
2023/01/14 07:37:59;;;;;;;3.80;1.50;;;;;;;;;;5050789;28;20445;-75
2023/01/14 07:40:26;;;;;;;4.03;1.97;;;;;;;;;;5050588;28;20449;-74
2023/01/14 07:42:57;;;;;;;3.57;2.00;;;;;;;;;;5049957;28;20448;-74
2023/01/14 07:45:26;;;;;;;3.33;2.00;;;;;;;;;;5049745;28;20445;-74
2023/01/14 07:47:53;;;;;;;13.23;10.00;;;;;;;;;;5050815;28;20482;-74
2023/01/14 07:50:21;;;;;;;13.00;2.93;;;;;;;;;;5051336;28;20471;-74
2023/01/14 07:52:52;;;;;;;7.87;2.40;;;;;;;;;;5050249;28;20488;-73
2023/01/14 07:55:19;;;;;;;6.07;2.03;;;;;;;;;;5051530;28;20980;-74
2023/01/14 07:57:46;;;;;;;7.27;2.30;;;;;;;;;;5052008;28;20448;-74
2023/01/14 08:00:14;;;;;;;7.77;2.37;;;;;;;;;;5049946;28;20935;-76
2023/01/14 08:02:43;;;;;;;7.80;2.60;;;;;;;;;;5049815;28;20471;-75
2023/01/14 08:05:10;;;;;;;8.30;1.90;;;;;;;;;;5049816;28;20445;-74
2023/01/14 08:07:37;;;;;;;6.90;3.10;;;;;;;;;;5045950;28;20474;-75
2023/01/14 08:10:04;;;;;;;5.90;2.07;;;;;;;;;;5029989;28;21068;-75
2023/01/14 08:12:32;;;;;;;4.13;2.03;;;;;;;;;;5029351;28;20501;-74
2023/01/14 08:14:59;;;;;;;8.43;2.43;;;;;;;;;;5035491;28;20556;-73
2023/01/14 08:17:26;;;;;;;5.70;2.70;;;;;;;;;;5050381;28;20459;-75
2023/01/14 08:19:54;;;;;;;4.73;3.60;;;;;;;;;;5049936;28;20535;-74
2023/01/14 08:22:21;;;;;;;7.90;2.97;;;;;;;;;;5049690;28;20436;-74
2023/01/14 08:24:50;;;;;;;6.47;3.20;;;;;;;;;;5049402;28;20840;-75
2023/01/14 08:27:17;;;;;;;8.43;2.40;;;;;;;;;;5049266;28;20463;-74
2023/01/14 08:29:45;;;;;;;4.20;2.20;;;;;;;;;;5049899;28;20461;-75
2023/01/14 08:32:13;;;;;;;6.87;2.30;;;;;;;;;;5049462;28;21056;-74
2023/01/14 08:34:40;;;;;;;9.17;2.80;;;;;;;;;;5035635;28;20870;-73
2023/01/14 08:37:09;;;;;;;10.00;2.53;;;;;;;;;;5029793;28;20449;-76
2023/01/14 08:39:36;;;;;;;3.90;2.13;;;;;;;;;;5029615;28;20504;-74
2023/01/14 08:42:03;;;;;;;5.10;2.47;;;;;;;;;;5029710;28;20468;-74
2023/01/14 08:44:30;;;;;;;6.43;2.70;;;;;;;;;;5030647;28;20445;-74
2023/01/14 08:46:57;;;;;;;5.30;2.50;;;;;;;;;;5030243;28;20504;-74
2023/01/14 08:49:24;;;;;;;3.63;2.27;;;;;;;;;;5030296;28;20469;-75
2023/01/14 08:51:51;;;;;;;6.73;2.40;;;;;;;;;;5030244;28;20585;-75
2023/01/14 08:54:19;;;;;;;7.60;2.20;;;;;;;;;;5029671;28;20447;-73
2023/01/14 08:56:46;;;;;;;7.03;2.60;;;;;;;;;;5029805;28;21010;-74
2023/01/14 08:59:13;;;;;;;7.73;2.83;;;;;;;;;;5030257;28;20461;-75
2023/01/14 09:01:40;;;;;;;3.67;2.40;;;;;;;;;;5030154;28;20446;-75
2023/01/14 09:04:07;;;;;;;4.63;2.20;;;;;;;;;;5029524;28;20457;-75
2023/01/14 09:17:04;;;;;;;8.13;2.87;;;;;;;;;;5029988;28;20445;-75
2023/01/14 09:17:39;;;;;;;4.57;2.43;;;;;;;;;;5051234;28;20470;-75
2023/01/14 09:20:09;;;;;;;4.70;2.50;;;;;;;;;;5053503;28;20540;-75
2023/01/14 09:22:36;;;;;;;6.03;2.40;;;;;;;;;;5055550;28;20536;-74
2023/01/14 09:25:05;;;;;;;6.50;2.30;;;;;;;;;;5053527;28;20444;-74
2023/01/14 09:27:32;;;;;;;4.53;2.33;;;;;;;;;;5053001;28;20449;-75
2023/01/14 09:29:59;;;;;;;4.40;2.23;;;;;;;;;;5053144;28;20469;-74
2023/01/14 09:32:26;;;;;;;6.20;2.50;;;;;;;;;;5052845;28;20504;-75
2023/01/14 09:34:53;;;;;;;3.10;2.40;;;;;;;;;;5053199;28;20438;-76
2023/01/14 09:37:22;;;;;;;6.10;3.20;;;;;;;;;;5053503;28;20448;-74
2023/01/14 09:39:49;;;;;;;5.40;2.57;;;;;;;;;;5052865;28;20805;-76
2023/01/14 09:42:20;;;;;;;7.50;2.20;;;;;;;;;;5053084;28;20887;-76
2023/01/14 09:44:47;;;;;;;4.77;2.70;;;;;;;;;;5053550;28;20436;-74
2023/01/14 09:47:17;;;;;;;2.93;2.07;;;;;;;;;;5054138;28;20445;-76
2023/01/14 09:49:44;;;;;;;2.20;1.93;;;;;;;;;;5053072;28;20544;-75
2023/01/14 09:52:16;;;;;;;3.70;2.33;;;;;;;;;;5053314;28;20473;-74
2023/01/14 09:54:47;;;;;;;4.77;2.07;;;;;;;;;;5052854;28;20468;-74
2023/01/14 09:57:16;;;;;;;3.30;1.77;;;;;;;;;;5055109;28;20437;-75
2023/01/14 09:59:51;;;;;;;3.40;1.80;;;;;;;;;;5055108;28;20466;-75
2023/01/14 10:02:20;;;;;;;5.37;2.47;;;;;;;;;;5054639;28;20901;-75
2023/01/14 10:05:00;;;;;;;4.03;2.27;;;;;;;;;;5054249;28;20450;-76
2023/01/14 10:07:27;;;;;;;3.20;2.10;;;;;;;;;;5053779;28;20452;-74
2023/01/14 10:09:55;;;;;;;3.40;2.00;;;;;;;;;;5053335;28;20895;-74
2023/01/14 10:12:25;;;;;;;4.43;2.20;;;;;;;;;;5053011;28;20925;-74
2023/01/14 10:14:59;;;;;;;2.73;1.67;;;;;;;;;;5048351;28;20815;-75
2023/01/14 10:17:28;;;;;;;6.67;2.57;;;;;;;;;;5032712;28;20443;-75
2023/01/14 10:19:55;;;;;;;3.00;2.30;;;;;;;;;;5033032;28;20463;-75
2023/01/14 10:22:29;;;;;;;4.23;2.07;;;;;;;;;;5033100;28;20449;-75
2023/01/14 10:24:56;;;;;;;3.67;1.77;;;;;;;;;;5031480;28;20435;-75
2023/01/14 10:27:25;;;;;;;2.83;1.50;;;;;;;;;;5030969;28;20881;-74
2023/01/14 10:29:52;;;;;;;3.90;1.77;;;;;;;;;;5033343;28;20882;-75
2023/01/14 10:32:21;;;;;;;1.40;1.30;;;;;;;;;;5030465;28;20482;-75
2023/01/14 10:34:50;;;;;;;1.40;1.30;;;;;;;;;;5030773;28;20501;-74
2023/01/14 10:37:17;;;;;;;2.77;1.70;;;;;;;;;;5030785;28;20444;-75
2023/01/14 10:39:46;;;;;;;3.93;1.73;;;;;;;;;;5031927;28;20470;-74
2023/01/14 10:42:13;;;;;;;2.30;1.73;;;;;;;;;;5031553;28;20899;-75
2023/01/14 10:44:43;;;;;;;1.60;1.50;;;;;;;;;;5031855;28;21052;-74
2023/01/14 10:47:12;;;;;;;2.73;1.60;;;;;;;;;;5037979;28;20456;-75
2023/01/14 10:49:43;;;;;;;3.03;1.70;;;;;;;;;;5058453;28;20466;-76
2023/01/14 10:52:23;;;;;;;2.50;1.73;;;;;;;;;;5058118;28;20507;-76
2023/01/14 10:54:57;;;;;;;1.80;1.70;;;;;;;;;;5055077;28;20913;-75
2023/01/14 10:57:25;;;;;;;1.90;1.60;;;;;;;;;;5053745;28;20453;-76
2023/01/14 10:59:53;;;;;;;2.63;1.60;;;;;;;;;;5054467;28;20458;-74
2023/01/14 11:02:21;;;;;;;2.00;1.43;;;;;;;;;;5055917;28;20442;-75
2023/01/14 11:04:51;;;;;;;1.93;1.47;;;;;;;;;;5058087;28;20445;-76
2023/01/14 11:07:28;;;;;;;2.60;1.83;;;;;;;;;;5058733;28;20442;-76
2023/01/14 11:09:57;;;;;;;1.83;1.70;;;;;;;;;;5057614;28;20500;-76
2023/01/14 11:12:28;;;;;;;3.20;1.73;;;;;;;;;;5056389;28;20508;-76
2023/01/14 11:14:55;;;;;;;3.80;1.77;;;;;;;;;;5055195;28;20442;-75
2023/01/14 11:17:23;;;;;;;4.07;1.80;;;;;;;;;;5056007;28;20457;-75
2023/01/14 11:19:52;;;;;;;3.03;1.63;;;;;;;;;;5054463;28;20465;-78
2023/01/14 11:22:19;;;;;;;3.17;1.60;;;;;;;;;;5055343;28;20465;-76
2023/01/14 11:24:48;;;;;;;2.10;1.90;;;;;;;;;;5051637;28;20536;-74
2023/01/14 11:27:16;;;;;;;3.23;1.60;;;;;;;;;;5052394;28;20454;-75
2023/01/14 11:29:45;;;;;;;2.40;1.67;;;;;;;;;;5054332;28;20473;-76
2023/01/14 11:32:13;;;;;;;2.63;1.80;;;;;;;;;;5054514;28;20449;-76
2023/01/14 11:34:41;;;;;;;2.03;1.50;;;;;;;;;;5053332;28;20442;-78
2023/01/14 11:37:16;;;;;;;2.47;1.73;;;;;;;;;;5053304;28;20450;-76
2023/01/14 11:39:47;;;;;;;1.80;1.70;;;;;;;;;;5053516;28;20458;-75
2023/01/14 11:42:22;;;;;;;2.33;1.70;;;;;;;;;;5052635;28;20496;-76
2023/01/14 11:44:57;;;;;;;1.70;1.60;;;;;;;;;;5053558;28;20448;-74
2023/01/14 11:47:25;;;;;;;3.07;1.80;;;;;;;;;;5053487;28;20499;-76
2023/01/14 11:50:10;;;;;;;2.97;2.43;;;;;;;;;;5059687;28;20474;-75
2023/01/14 11:52:38;;;;;;;3.10;2.00;;;;;;;;;;5064889;28;20477;-74
2023/01/14 11:55:12;;;;;;;3.43;2.00;;;;;;;;;;5057076;28;20449;-75
2023/01/14 11:57:40;;;;;;;4.03;2.17;;;;;;;;;;5051021;28;20979;-75
2023/01/14 12:00:07;;;;;;;2.97;1.57;;;;;;;;;;5052437;28;20564;-76
2023/01/14 12:02:37;;;;;;;2.83;1.90;;;;;;;;;;5051926;28;20446;-75
2023/01/14 12:05:05;;;;;;;3.03;1.83;;;;;;;;;;5051393;28;20441;-74
2023/01/14 12:07:34;;;;;;;3.83;1.93;;;;;;;;;;5054126;28;20834;-75
2023/01/14 12:10:05;;;;;;;2.93;1.70;;;;;;;;;;5051409;28;20492;-76
2023/01/14 12:16:48;;;;;;;2.60;1.77;;;;;;;;;;5052006;28;20479;-75
2023/01/14 12:18:17;;;;;;;2.40;1.70;;;;;;;;;;4993190;28;20464;-75
2023/01/14 12:20:45;;;;;;;2.80;2.10;;;;;;;;;;5032263;28;20423;-74
2023/01/14 12:23:15;;;;;;;2.20;1.87;;;;;;;;;;5031778;28;20439;-75
2023/01/14 12:25:44;;;;;;;2.20;2.00;;;;;;;;;;5032436;28;20451;-74
2023/01/14 12:28:13;;;;;;;2.10;1.70;;;;;;;;;;5033752;28;20470;-75
2023/01/14 12:30:43;;;;;;;1.67;1.53;;;;;;;;;;5032261;28;20454;-76
2023/01/14 12:33:23;;;;;;;2.10;1.90;;;;;;;;;;5033728;28;20482;-75
2023/01/14 12:35:52;;;;;;;2.70;1.87;;;;;;;;;;5033783;28;20446;-75
2023/01/14 12:46:40;;;;;;;3.37;2.47;;;;;;;;;;5030165;28;20491;-75
2023/01/14 12:49:07;;;;;;;3.40;3.10;;;;;;;;;;5029926;28;20978;-74
2023/01/14 12:51:36;;;;;;;6.33;2.00;;;;;;;;;;5030972;28;20446;-74
2023/01/14 12:54:03;;;;;;;3.50;1.80;;;;;;;;;;5029981;28;20808;-76
2023/01/14 12:56:33;;;;;;;1.70;1.50;;;;;;;;;;5034380;28;20438;-75
2023/01/14 12:59:02;;;;;;;3.10;2.30;;;;;;;;;;5034291;28;20466;-74
2023/01/14 13:01:32;;;;;;;4.67;2.73;;;;;;;;;;5034109;28;20446;-74
2023/01/14 13:04:00;;;;;;;2.20;2.03;;;;;;;;;;5033484;28;20441;-75
2023/01/14 13:06:28;;;;;;;8.13;2.23;;;;;;;;;;5034076;28;20450;-74
2023/01/14 13:08:57;;;;;;;2.13;1.83;;;;;;;;;;5033711;28;21015;-75
2023/01/14 13:11:26;;;;;;;5.00;2.43;;;;;;;;;;5033753;28;20443;-75
2023/01/14 13:13:56;;;;;;;3.60;1.50;;;;;;;;;;5033349;28;20489;-74
2023/01/14 13:16:32;;;;;;;6.07;1.90;;;;;;;;;;5050328;28;20453;-75
2023/01/14 13:19:00;;;;;;;2.10;2.00;;;;;;;;;;5054197;28;20471;-75
2023/01/14 13:21:57;;;;;;;1.90;1.80;;;;;;;;;;5053995;28;20453;-75
2023/01/14 13:24:29;;;;;;;3.43;2.80;;;;;;;;;;4991701;28;21059;-76
2023/01/14 13:26:57;;;;;;;4.67;2.87;;;;;;;;;;5040327;28;20484;-76
2023/01/14 13:29:27;;;;;;;7.67;2.00;;;;;;;;;;5053473;28;20464;-75
2023/01/14 13:31:55;;;;;;;2.53;1.70;;;;;;;;;;5053814;28;20784;-75
2023/01/14 13:34:46;;;;;;;1.70;1.60;;;;;;;;;;5054006;28;20477;-74
2023/01/14 13:37:17;;;;;;;2.27;1.80;;;;;;;;;;5052748;28;20487;-75
2023/01/14 13:39:47;;;;;;;1.77;1.63;;;;;;;;;;5054026;28;20715;-75
2023/01/14 13:42:16;;;;;;;2.20;1.87;;;;;;;;;;5053948;28;20434;-74
2023/01/14 13:44:48;;;;;;;2.70;2.23;;;;;;;;;;5052314;28;20464;-75
2023/01/14 13:47:19;;;;;;;3.17;1.53;;;;;;;;;;5052943;28;20468;-75
2023/01/14 13:49:53;;;;;;;4.13;3.73;;;;;;;;;;5052953;28;20869;-77
2023/01/14 13:52:23;;;;;;;2.03;1.80;;;;;;;;;;5052806;28;20441;-74
2023/01/14 13:54:53;;;;;;;2.20;2.10;;;;;;;;;;5052509;28;20508;-75
2023/01/14 13:57:22;;;;;;;2.53;1.80;;;;;;;;;;5052950;28;20454;-76
2023/01/14 13:59:56;;;;;;;3.37;2.40;;;;;;;;;;5052655;28;20461;-76
2023/01/14 14:02:43;;;;;;;3.93;2.97;;;;;;;;;;5052467;28;20757;-76
2023/01/14 14:05:24;;;;;;;4.17;2.10;;;;;;;;;;5051899;28;20437;-74
2023/01/14 14:07:59;;;;;;;2.70;2.10;;;;;;;;;;5052492;28;20507;-75
2023/01/14 14:10:27;;;;;;;2.20;1.80;;;;;;;;;;5052637;28;20548;-74
2023/01/14 14:15:45;;;;;;;2.77;2.10;;;;;;;;;;5041512;28;20426;-74
2023/01/14 14:18:20;;;;;;;3.00;1.70;;;;;;;;;;5032372;28;20462;-74
2023/01/14 14:20:47;;;;;;;3.93;1.87;;;;;;;;;;5032443;28;20552;-75
2023/01/14 14:23:19;;;;;;;3.10;2.20;;;;;;;;;;5032612;28;20931;-74
2023/01/14 14:25:47;;;;;;;2.73;2.03;;;;;;;;;;5032345;28;20457;-75
2023/01/14 14:28:18;;;;;;;2.83;1.70;;;;;;;;;;5032389;28;20478;-74
2023/01/14 14:30:48;;;;;;;1.80;1.70;;;;;;;;;;5032515;28;20449;-75
2023/01/14 14:33:36;;;;;;;2.00;1.90;;;;;;;;;;5032185;28;20469;-75
2023/01/14 14:36:05;;;;;;;3.83;2.13;;;;;;;;;;5032684;28;20488;-74
2023/01/14 14:38:32;;;;;;;3.13;1.73;;;;;;;;;;5033013;28;20549;-75
2023/01/14 14:41:05;;;;;;;2.13;1.93;;;;;;;;;;5032278;28;20458;-75
2023/01/14 14:43:32;;;;;;;1.63;1.53;;;;;;;;;;5032666;28;20546;-75
2023/01/14 14:46:02;;;;;;;2.00;1.90;;;;;;;;;;5032286;28;20446;-75
2023/01/14 14:48:30;;;;;;;1.40;1.30;;;;;;;;;;5032045;28;20528;-75
2023/01/14 14:50:57;;;;;;;2.17;1.97;;;;;;;;;;5032722;28;20493;-74
2023/01/14 14:53:28;;;;;;;2.20;1.93;;;;;;;;;;5032027;28;20463;-75
2023/01/14 14:55:57;;;;;;;2.10;2.00;;;;;;;;;;5031845;28;20989;-74
2023/01/14 14:58:24;;;;;;;2.23;2.03;;;;;;;;;;5032244;28;20474;-75
2023/01/14 15:00:55;;;;;;;2.17;1.97;;;;;;;;;;5032108;28;20446;-74
2023/01/14 15:03:23;;;;;;;2.27;2.03;;;;;;;;;;5031760;28;20442;-77
2023/01/14 15:05:52;;;;;;;4.93;2.07;;;;;;;;;;5031956;28;20462;-75
2023/01/14 15:08:23;;;;;;;4.43;2.17;;;;;;;;;;5031654;28;20489;-75
2023/01/14 15:10:50;;;;;;;3.10;1.97;;;;;;;;;;5031813;28;20446;-74
2023/01/14 15:13:21;;;;;;;4.07;1.90;;;;;;;;;;5031329;28;20447;-76
2023/01/14 15:16:03;;;;;;;5.17;2.27;;;;;;;;;;5043644;28;20456;-76
2023/01/14 15:18:34;;;;;;;1.93;1.83;;;;;;;;;;5050895;28;20475;-74
2023/01/14 15:21:01;;;;;;;2.10;1.80;;;;;;;;;;5051362;28;20437;-74
2023/01/14 15:23:28;;;;;;;1.60;1.50;;;;;;;;;;5051452;28;20448;-75
2023/01/14 15:25:55;;;;;;;1.07;1.07;;;;;;;;;;5051467;28;20437;-74
2023/01/14 15:28:22;;;;;;;1.67;1.50;;;;;;;;;;5051485;28;20476;-75
2023/01/14 15:30:56;;;;;;;3.93;1.77;;;;;;;;;;5053568;28;20454;-75
2023/01/14 15:33:26;;;;;;;1.73;1.63;;;;;;;;;;5061933;28;20441;-74